Time,TemperatureF,DewpointF,PressureIn,WindDirection,WindDirectionDegrees,WindSpeedMPH,WindSpeedGustMPH,Humidity,HourlyPrecipIn,Conditions,Clouds,dailyrainin,SoftwareType,DateUTC
2015-03-02 00:02:00,32.4,30.4,30.16,WNW,302,4.0,4.0,92,0.00,,,0.00,meteohub,2015-03-02 05:02:00,
2015-03-02 00:07:00,32.4,30.4,30.16,WNW,302,3.0,4.0,92,0.00,,,0.00,meteohub,2015-03-02 05:07:00,
2015-03-02 00:12:00,32.4,30.4,30.16,WNW,302,0.0,4.0,92,0.00,,,0.00,meteohub,2015-03-02 05:12:00,
2015-03-02 00:17:00,32.4,30.4,30.15,WNW,302,0.0,4.0,92,0.00,,,0.00,meteohub,2015-03-02 05:17:00,
2015-03-02 00:22:00,32.4,30.4,30.15,WNW,302,0.0,4.0,92,0.00,,,0.00,meteohub,2015-03-02 05:22:00,
2015-03-02 00:27:00,32.4,30.4,30.15,WNW,302,1.0,3.0,92,0.00,,,0.00,meteohub,2015-03-02 05:27:00,
2015-03-02 00:32:00,32.4,30.4,30.14,WNW,302,0.0,3.0,92,0.01,,,0.01,meteohub,2015-03-02 05:32:00,
2015-03-02 00:37:00,32.4,30.4,30.14,WNW,302,0.0,3.0,92,0.01,,,0.01,meteohub,2015-03-02 05:37:00,
2015-03-02 00:42:00,32.2,30.2,30.13,WNW,302,0.0,2.0,92,0.01,,,0.01,meteohub,2015-03-02 05:42:00,
2015-03-02 00:47:00,32.4,30.4,30.13,WNW,302,1.0,2.0,92,0.01,,,0.01,meteohub,2015-03-02 05:47:00,
2015-03-02 00:52:00,32.2,30.2,30.13,WNW,302,0.0,2.0,92,0.01,,,0.01,meteohub,2015-03-02 05:52:00,
2015-03-02 00:57:00,32.2,30.2,30.13,WNW,302,0.0,2.0,92,0.01,,,0.01,meteohub,2015-03-02 05:57:00,
2015-03-02 01:02:00,32.4,30.4,30.12,WNW,302,1.0,2.0,92,0.01,,,0.01,meteohub,2015-03-02 06:02:00,
2015-03-02 01:07:00,32.4,30.4,30.12,WNW,302,0.0,3.0,92,0.02,,,0.02,meteohub,2015-03-02 06:07:00,
2015-03-02 01:12:00,32.4,30.4,30.12,WNW,302,1.0,3.0,92,0.02,,,0.02,meteohub,2015-03-02 06:12:00,
2015-03-02 01:17:00,32.4,30.4,30.11,WNW,302,0.0,3.0,92,0.02,,,0.02,meteohub,2015-03-02 06:17:00,
2015-03-02 01:22:00,32.4,30.4,30.11,WNW,302,0.0,3.0,92,0.02,,,0.02,meteohub,2015-03-02 06:22:00,
2015-03-02 01:27:00,32.5,30.6,30.11,WNW,302,0.0,3.0,92,0.02,,,0.02,meteohub,2015-03-02 06:27:00,
2015-03-02 01:32:00,32.5,30.6,30.10,WNW,302,0.0,2.0,92,0.01,,,0.02,meteohub,2015-03-02 06:32:00,
2015-03-02 01:37:00,32.5,30.6,30.10,WNW,302,2.0,3.0,92,0.02,,,0.03,meteohub,2015-03-02 06:37:00,
2015-03-02 01:42:00,32.5,30.6,30.09,WNW,302,0.0,3.0,92,0.02,,,0.03,meteohub,2015-03-02 06:42:00,
2015-03-02 01:47:00,32.5,30.6,30.09,WNW,302,0.0,3.0,92,0.02,,,0.03,meteohub,2015-03-02 06:47:00,
2015-03-02 01:52:00,32.5,30.6,30.09,WNW,302,0.0,3.0,92,0.02,,,0.03,meteohub,2015-03-02 06:52:00,
2015-03-02 01:57:00,32.5,30.6,30.09,NNW,342,2.0,3.0,92,0.02,,,0.03,meteohub,2015-03-02 06:57:00,
2015-03-02 02:02:00,32.5,30.6,30.08,North,349,0.0,3.0,92,0.02,,,0.03,meteohub,2015-03-02 07:02:00,
2015-03-02 02:07:00,32.5,30.6,30.08,WNW,284,2.0,3.0,92,0.01,,,0.03,meteohub,2015-03-02 07:07:00,
2015-03-02 02:12:00,32.5,30.6,30.08,WNW,298,0.0,9.0,92,0.01,,,0.03,meteohub,2015-03-02 07:12:00,
2015-03-02 02:17:00,32.5,30.6,30.08,ENE,67,0.0,9.0,92,0.01,,,0.03,meteohub,2015-03-02 07:17:00,
2015-03-02 02:22:00,32.5,30.6,30.08,NW,311,1.0,9.0,92,0.01,,,0.03,meteohub,2015-03-02 07:22:00,
2015-03-02 02:27:00,32.4,30.4,30.07,NW,310,0.0,5.0,92,0.01,,,0.03,meteohub,2015-03-02 07:27:00,
2015-03-02 02:32:00,32.4,30.4,30.07,NW,315,0.0,5.0,92,0.00,,,0.03,meteohub,2015-03-02 07:32:00,
2015-03-02 02:37:00,32.2,30.2,30.06,NW,311,3.0,5.0,92,0.01,,,0.04,meteohub,2015-03-02 07:37:00,
2015-03-02 02:42:00,32.2,30.2,30.05,North,355,1.0,6.0,92,0.01,,,0.04,meteohub,2015-03-02 07:42:00,
2015-03-02 02:47:00,32.0,30.0,30.06,East,94,0.0,6.0,92,0.01,,,0.04,meteohub,2015-03-02 07:47:00,
2015-03-02 02:52:00,31.8,29.8,30.06,NW,321,4.0,6.0,92,0.01,,,0.04,meteohub,2015-03-02 07:52:00,
2015-03-02 02:57:00,31.8,29.8,30.06,NW,309,4.0,6.0,92,0.01,,,0.04,meteohub,2015-03-02 07:57:00,
2015-03-02 03:02:00,31.8,29.8,30.06,NNE,12,5.0,6.0,92,0.01,,,0.04,meteohub,2015-03-02 08:02:00,
2015-03-02 03:07:00,31.8,29.8,30.04,NW,305,2.0,10.0,92,0.01,,,0.04,meteohub,2015-03-02 08:07:00,
2015-03-02 03:12:00,31.6,29.7,30.05,NW,311,3.0,10.0,92,0.01,,,0.04,meteohub,2015-03-02 08:12:00,
2015-03-02 03:17:00,31.6,29.7,30.04,NNW,332,3.0,11.0,92,0.01,,,0.04,meteohub,2015-03-02 08:17:00,
2015-03-02 03:22:00,31.6,29.7,30.04,NW,319,7.0,11.0,92,0.01,,,0.04,meteohub,2015-03-02 08:22:00,
2015-03-02 03:27:00,31.5,29.5,30.04,NW,306,4.0,11.0,92,0.01,,,0.04,meteohub,2015-03-02 08:27:00,
2015-03-02 03:32:00,31.5,29.5,30.03,WNW,302,2.0,10.0,92,0.01,,,0.04,meteohub,2015-03-02 08:32:00,
2015-03-02 03:37:00,31.5,29.5,30.03,WNW,303,2.0,10.0,92,0.00,,,0.04,meteohub,2015-03-02 08:37:00,
2015-03-02 03:42:00,31.5,29.5,30.03,WNW,303,2.0,9.0,92,0.00,,,0.04,meteohub,2015-03-02 08:42:00,
2015-03-02 03:47:00,31.5,29.5,30.03,NW,313,4.0,7.0,92,0.00,,,0.04,meteohub,2015-03-02 08:47:00,
2015-03-02 03:52:00,31.5,29.5,30.03,WNW,301,0.0,6.0,92,0.00,,,0.04,meteohub,2015-03-02 08:52:00,
2015-03-02 03:57:00,31.3,29.3,30.03,NW,306,0.0,6.0,92,0.00,,,0.04,meteohub,2015-03-02 08:57:00,
2015-03-02 04:02:00,31.1,29.1,30.03,WNW,302,6.0,8.0,92,0.00,,,0.04,meteohub,2015-03-02 09:02:00,
2015-03-02 04:07:00,30.9,28.9,30.03,NW,315,4.0,9.0,92,0.00,,,0.04,meteohub,2015-03-02 09:07:00,
2015-03-02 04:12:00,30.9,28.9,30.04,NNW,347,5.0,9.0,92,0.00,,,0.04,meteohub,2015-03-02 09:12:00,
2015-03-02 04:17:00,30.9,28.9,30.04,NW,307,5.0,9.0,92,0.00,,,0.04,meteohub,2015-03-02 09:17:00,
2015-03-02 04:22:00,30.7,28.8,30.04,NW,324,7.0,8.0,92,0.00,,,0.04,meteohub,2015-03-02 09:22:00,
2015-03-02 04:27:00,30.7,28.8,30.03,WNW,302,2.0,10.0,92,0.00,,,0.04,meteohub,2015-03-02 09:27:00,
2015-03-02 04:32:00,30.7,28.8,30.03,WNW,297,0.0,10.0,92,0.00,,,0.04,meteohub,2015-03-02 09:32:00,
2015-03-02 04:37:00,30.7,28.8,30.03,WNW,296,4.0,10.0,92,0.00,,,0.04,meteohub,2015-03-02 09:37:00,
2015-03-02 04:42:00,30.6,28.6,30.03,NW,310,3.0,7.0,92,0.00,,,0.04,meteohub,2015-03-02 09:42:00,
2015-03-02 04:47:00,30.6,28.6,30.02,NW,315,3.0,6.0,92,0.00,,,0.04,meteohub,2015-03-02 09:47:00,
2015-03-02 04:52:00,30.6,28.6,30.01,NW,313,0.0,6.0,92,0.01,,,0.05,meteohub,2015-03-02 09:52:00,
2015-03-02 04:57:00,30.4,28.4,30.02,NW,316,1.0,6.0,92,0.01,,,0.05,meteohub,2015-03-02 09:57:00,
2015-03-02 05:02:00,30.4,28.4,30.03,NW,323,1.0,6.0,92,0.01,,,0.05,meteohub,2015-03-02 10:02:00,
2015-03-02 05:07:00,30.4,28.4,30.03,NW,309,3.0,6.0,92,0.01,,,0.05,meteohub,2015-03-02 10:07:00,
2015-03-02 05:12:00,30.2,28.2,30.02,NW,320,0.0,7.0,92,0.01,,,0.05,meteohub,2015-03-02 10:12:00,
2015-03-02 05:17:00,30.2,28.2,30.03,NW,318,0.0,7.0,92,0.01,,,0.05,meteohub,2015-03-02 10:17:00,
2015-03-02 05:22:00,30.0,28.0,30.02,NW,315,0.0,7.0,92,0.01,,,0.05,meteohub,2015-03-02 10:22:00,
2015-03-02 05:27:00,30.0,28.0,30.02,NW,305,1.0,7.0,92,0.01,,,0.05,meteohub,2015-03-02 10:27:00,
2015-03-02 05:32:00,30.0,28.0,30.02,NW,311,1.0,7.0,92,0.01,,,0.05,meteohub,2015-03-02 10:32:00,
2015-03-02 05:37:00,30.0,28.0,30.02,NW,312,3.0,5.0,92,0.01,,,0.05,meteohub,2015-03-02 10:37:00,
2015-03-02 05:42:00,30.0,28.0,30.02,NW,309,1.0,6.0,92,0.01,,,0.05,meteohub,2015-03-02 10:42:00,
2015-03-02 05:47:00,29.8,27.9,30.01,NW,308,3.0,6.0,92,0.01,,,0.05,meteohub,2015-03-02 10:47:00,
2015-03-02 05:52:00,29.8,27.9,30.01,NW,314,1.0,6.0,92,0.00,,,0.05,meteohub,2015-03-02 10:52:00,
2015-03-02 05:57:00,29.8,27.9,30.01,NW,316,1.0,5.0,92,0.00,,,0.05,meteohub,2015-03-02 10:57:00,
2015-03-02 06:02:00,29.8,27.9,30.02,NW,316,2.0,6.0,92,0.00,,,0.05,meteohub,2015-03-02 11:02:00,
2015-03-02 06:07:00,29.8,27.9,30.01,NW,316,0.0,6.0,92,0.00,,,0.05,meteohub,2015-03-02 11:07:00,
2015-03-02 06:12:00,29.7,27.7,30.01,NW,316,0.0,5.0,92,0.00,,,0.05,meteohub,2015-03-02 11:12:00,
2015-03-02 06:17:00,29.7,27.7,30.01,West,269,2.0,5.0,92,0.00,,,0.05,meteohub,2015-03-02 11:17:00,
2015-03-02 06:22:00,29.7,27.7,30.01,North,350,3.0,4.0,92,0.00,,,0.05,meteohub,2015-03-02 11:22:00,
2015-03-02 06:27:00,29.7,27.7,30.00,East,95,2.0,5.0,92,0.00,,,0.05,meteohub,2015-03-02 11:27:00,
2015-03-02 06:32:00,29.7,27.7,30.01,NW,307,3.0,5.0,92,0.00,,,0.05,meteohub,2015-03-02 11:32:00,
2015-03-02 06:37:00,29.5,27.5,30.01,NW,318,0.0,5.0,92,0.00,,,0.05,meteohub,2015-03-02 11:37:00,
2015-03-02 06:42:00,29.5,27.5,30.01,NW,318,0.0,5.0,92,0.00,,,0.05,meteohub,2015-03-02 11:42:00,
2015-03-02 06:47:00,29.5,27.5,30.00,NW,312,7.0,7.0,92,0.00,,,0.05,meteohub,2015-03-02 11:47:00,
2015-03-02 06:52:00,29.5,27.5,30.01,NW,313,3.0,7.0,92,0.00,,,0.05,meteohub,2015-03-02 11:52:00,
2015-03-02 06:57:00,29.5,27.5,30.01,NW,313,0.0,7.0,92,0.00,,,0.05,meteohub,2015-03-02 11:57:00,
2015-03-02 07:02:00,29.5,27.5,30.01,NW,315,2.0,7.0,92,0.00,,,0.05,meteohub,2015-03-02 12:02:00,
2015-03-02 07:07:00,29.5,27.5,30.01,NW,315,0.0,3.0,92,0.00,,,0.05,meteohub,2015-03-02 12:07:00,
2015-03-02 07:12:00,29.5,27.5,29.99,WNW,294,1.0,3.0,92,0.00,,,0.05,meteohub,2015-03-02 12:12:00,
2015-03-02 07:17:00,29.5,27.5,30.00,NNW,339,0.0,2.0,92,0.00,,,0.05,meteohub,2015-03-02 12:17:00,
2015-03-02 07:22:00,29.5,27.5,30.00,NNW,346,0.0,3.0,92,0.00,,,0.05,meteohub,2015-03-02 12:22:00,
2015-03-02 07:27:00,29.5,27.5,29.99,NW,309,0.0,3.0,92,0.00,,,0.05,meteohub,2015-03-02 12:27:00,
2015-03-02 07:32:00,29.7,27.7,30.00,NW,313,0.0,3.0,92,0.00,,,0.05,meteohub,2015-03-02 12:32:00,
2015-03-02 07:37:00,29.7,27.7,30.00,NW,313,0.0,5.0,92,0.00,,,0.05,meteohub,2015-03-02 12:37:00,
2015-03-02 07:42:00,29.7,27.7,30.00,NW,313,2.0,5.0,92,0.00,,,0.05,meteohub,2015-03-02 12:42:00,
2015-03-02 07:47:00,29.7,27.7,30.01,ENE,63,2.0,5.0,92,0.00,,,0.05,meteohub,2015-03-02 12:47:00,
2015-03-02 07:52:00,29.7,27.7,30.01,NE,44,1.0,6.0,92,0.00,,,0.05,meteohub,2015-03-02 12:52:00,
2015-03-02 07:57:00,29.7,27.7,30.01,ENE,65,2.0,6.0,92,0.00,,,0.05,meteohub,2015-03-02 12:57:00,
2015-03-02 08:02:00,29.7,27.7,30.01,ENE,65,0.0,6.0,92,0.00,,,0.05,meteohub,2015-03-02 13:02:00,
2015-03-02 08:07:00,29.7,27.7,30.01,East,96,1.0,6.0,92,0.00,,,0.05,meteohub,2015-03-02 13:07:00,
2015-03-02 08:12:00,29.7,27.7,30.01,WSW,256,1.0,7.0,92,0.00,,,0.05,meteohub,2015-03-02 13:12:00,
2015-03-02 08:17:00,29.7,27.7,30.00,NNE,13,1.0,7.0,92,0.00,,,0.05,meteohub,2015-03-02 13:17:00,
2015-03-02 08:22:00,29.7,27.7,30.01,NNE,24,1.0,7.0,92,0.00,,,0.05,meteohub,2015-03-02 13:22:00,
2015-03-02 08:27:00,29.7,27.7,30.01,NE,50,0.0,4.0,92,0.00,,,0.05,meteohub,2015-03-02 13:27:00,
2015-03-02 08:32:00,29.8,27.9,30.01,NNW,335,0.0,4.0,92,0.00,,,0.05,meteohub,2015-03-02 13:32:00,
2015-03-02 08:37:00,29.8,27.9,30.01,NW,326,0.0,4.0,92,0.00,,,0.05,meteohub,2015-03-02 13:37:00,
2015-03-02 08:42:00,29.8,27.9,30.01,North,351,0.0,3.0,92,0.00,,,0.05,meteohub,2015-03-02 13:42:00,
2015-03-02 08:47:00,29.8,27.9,30.01,North,355,1.0,4.0,92,0.00,,,0.05,meteohub,2015-03-02 13:47:00,
2015-03-02 08:52:00,29.8,27.9,30.01,West,277,3.0,4.0,92,0.00,,,0.05,meteohub,2015-03-02 13:52:00,
2015-03-02 08:57:00,30.0,28.0,30.01,NNE,13,1.0,5.0,92,0.00,,,0.05,meteohub,2015-03-02 13:57:00,
2015-03-02 09:02:00,30.0,28.0,30.01,North,11,0.0,5.0,92,0.00,,,0.05,meteohub,2015-03-02 14:02:00,
2015-03-02 09:07:00,30.2,28.2,30.01,North,10,2.0,5.0,92,0.00,,,0.05,meteohub,2015-03-02 14:07:00,
2015-03-02 09:12:00,30.2,28.2,30.01,NNE,28,2.0,3.0,92,0.00,,,0.05,meteohub,2015-03-02 14:12:00,
2015-03-02 09:17:00,30.2,28.2,30.00,NW,321,1.0,3.0,92,0.00,,,0.05,meteohub,2015-03-02 14:17:00,
2015-03-02 09:22:00,30.4,28.4,30.00,NW,321,0.0,6.0,92,0.00,,,0.05,meteohub,2015-03-02 14:22:00,
2015-03-02 09:27:00,30.2,28.2,30.00,NNW,346,3.0,6.0,92,0.00,,,0.05,meteohub,2015-03-02 14:27:00,
2015-03-02 09:32:00,30.4,28.4,30.00,NNW,328,0.0,6.0,92,0.00,,,0.05,meteohub,2015-03-02 14:32:00,
2015-03-02 09:37:00,30.4,28.4,29.99,NNW,327,2.0,6.0,92,0.00,,,0.05,meteohub,2015-03-02 14:37:00,
2015-03-02 09:42:00,30.4,28.4,30.00,ENE,58,2.0,6.0,92,0.00,,,0.05,meteohub,2015-03-02 14:42:00,
2015-03-02 09:47:00,30.6,28.6,30.00,East,79,0.0,5.0,92,0.00,,,0.05,meteohub,2015-03-02 14:47:00,
2015-03-02 09:52:00,30.6,28.6,30.00,NE,51,6.0,9.0,92,0.00,,,0.05,meteohub,2015-03-02 14:52:00,
2015-03-02 09:57:00,30.7,28.8,30.00,North,0,1.0,9.0,92,0.00,,,0.05,meteohub,2015-03-02 14:57:00,
2015-03-02 10:02:00,30.7,28.8,30.00,NNW,348,2.0,7.0,92,0.00,,,0.05,meteohub,2015-03-02 15:02:00,
2015-03-02 10:07:00,30.7,28.8,30.00,SE,124,4.0,7.0,92,0.00,,,0.05,meteohub,2015-03-02 15:07:00,
2015-03-02 10:13:00,30.9,28.6,30.00,ENE,74,0.0,6.0,91,0.00,,,0.05,meteohub,2015-03-02 15:13:00,
2015-03-02 10:18:00,31.1,28.8,30.00,East,85,0.0,7.0,91,0.00,,,0.05,meteohub,2015-03-02 15:18:00,
2015-03-02 10:23:00,31.5,29.1,30.01,NE,55,0.0,7.0,91,0.00,,,0.05,meteohub,2015-03-02 15:23:00,
2015-03-02 10:28:00,31.8,29.5,30.00,WNW,294,1.0,8.0,91,0.00,,,0.05,meteohub,2015-03-02 15:28:00,